createdAt,value
2018-02-11T00:00:06.402Z,97073.95
2018-02-11T00:02:33.936Z,97082.53
2018-02-11T00:05:01.373Z,97080.61
2018-02-11T00:07:28.887Z,97085.97
2018-02-11T00:09:56.346Z,97081.44
2018-02-11T00:12:23.813Z,97085.91
2018-02-11T00:14:51.321Z,97087.42
2018-02-11T00:17:18.795Z,97083.69
2018-02-11T00:19:46.499Z,97079.61
2018-02-11T00:22:14.025Z,97083.66
2018-02-11T00:24:41.444Z,97077.27
2018-02-11T00:27:08.906Z,97077.84
2018-02-11T00:29:36.392Z,97078.22
2018-02-11T00:32:03.844Z,97075.57
2018-02-11T00:34:31.354Z,97074.05
2018-02-11T00:36:58.902Z,97069.21
2018-02-11T00:39:26.361Z,97060.86
2018-02-11T00:41:53.785Z,97060.57
2018-02-11T00:44:21.306Z,97065.33
2018-02-11T00:46:48.795Z,97065.55
2018-02-11T00:51:50.062Z,97066.61
2018-02-11T00:54:17.565Z,97068.10
2018-02-11T00:56:45.014Z,97066.57
2018-02-11T00:59:12.655Z,97066.16
2018-02-11T01:01:40.081Z,97075.69
2018-02-11T01:04:07.580Z,97066.38
2018-02-11T01:06:35.055Z,97061.06
2018-02-11T01:09:02.588Z,97060.92
2018-02-11T01:11:30.084Z,97057.92
2018-02-11T01:13:57.585Z,97056.03
2018-02-11T01:16:25.090Z,97056.53
2018-02-11T01:18:52.539Z,97053.44
2018-02-11T01:21:20.042Z,97052.58
2018-02-11T01:23:47.510Z,97048.80
2018-02-11T01:26:15.137Z,97053.80
2018-02-11T01:28:42.629Z,97058.62
2018-02-11T01:31:10.155Z,97055.86
2018-02-11T01:33:37.591Z,97048.80
2018-02-11T01:36:05.101Z,97053.94
2018-02-11T01:38:32.574Z,97052.64
2018-02-11T01:41:00.077Z,97054.70
2018-02-11T01:43:27.543Z,97046.34
2018-02-11T01:45:55.077Z,97037.82
2018-02-11T01:48:22.477Z,97031.37
2018-02-11T01:50:50.233Z,97027.91
2018-02-11T01:53:17.834Z,97029.30
2018-02-11T01:55:45.355Z,97024.58
2018-02-11T01:58:12.802Z,97031.66
2018-02-11T02:00:40.294Z,97027.60
2018-02-11T02:03:07.752Z,97028.53
2018-02-11T02:05:35.252Z,97023.24
2018-02-11T02:08:02.966Z,97028.10
2018-02-11T02:10:30.443Z,97021.21
2018-02-11T02:12:57.908Z,97021.15
2018-02-11T02:15:25.378Z,97015.19
2018-02-11T02:17:52.773Z,97022.79
2018-02-11T02:20:20.284Z,97016.15
2018-02-11T02:22:47.808Z,97003.45
2018-02-11T02:25:15.260Z,96998.69
2018-02-11T02:27:42.740Z,96999.65
2018-02-11T02:30:10.240Z,97005.25
2018-02-11T02:32:37.759Z,97000.82
2018-02-11T02:35:05.254Z,97004.09
2018-02-11T02:37:32.835Z,97006.23
2018-02-11T02:40:00.338Z,97000.59
2018-02-11T02:42:27.894Z,97001.59
2018-02-11T02:44:55.349Z,97008.94
2018-02-11T02:47:22.870Z,97008.78
2018-02-11T02:49:50.267Z,97002.92
2018-02-11T02:52:17.820Z,96995.61
2018-02-11T02:54:45.427Z,96997.47
2018-02-11T02:57:12.897Z,96987.30
2018-02-11T02:59:40.369Z,96990.98
2018-02-11T03:02:07.874Z,96989.19
2018-02-11T03:04:35.378Z,96978.83
2018-02-11T03:07:02.802Z,96985.55
2018-02-11T03:09:30.385Z,96982.30
2018-02-11T03:11:57.889Z,96982.55
2018-02-11T03:14:25.423Z,96975.91
2018-02-11T03:16:52.893Z,96974.84
2018-02-11T03:19:20.299Z,96972.59
2018-02-11T03:21:47.810Z,96967.08
2018-02-11T03:24:15.270Z,96976.22
2018-02-11T03:26:42.791Z,96973.97
2018-02-11T03:29:10.290Z,96971.85
2018-02-11T03:31:37.768Z,96965.38
2018-02-11T03:34:05.250Z,96971.97
2018-02-11T03:36:32.763Z,96968.63
2018-02-11T03:39:00.209Z,96961.11
2018-02-11T03:41:27.736Z,96964.75
2018-02-11T03:43:55.945Z,96963.63
2018-02-11T03:46:23.517Z,96957.77
2018-02-11T03:48:51.020Z,96955.73
2018-02-11T03:51:18.513Z,96955.16
2018-02-11T03:53:45.989Z,96960.61
2018-02-11T03:56:13.454Z,96962.05
2018-02-11T03:58:40.893Z,96957.48
2018-02-11T04:01:08.345Z,96958.10
2018-02-11T04:03:35.766Z,96960.00
2018-02-11T04:06:03.282Z,96963.66
2018-02-11T04:08:30.833Z,96963.42
2018-02-11T04:10:58.237Z,96954.29
2018-02-11T04:13:25.741Z,96953.41
2018-02-11T04:15:53.242Z,96957.84
2018-02-11T04:18:20.703Z,96960.31
2018-02-11T04:20:48.205Z,96961.11
2018-02-11T04:23:15.761Z,96961.62
2018-02-11T04:25:43.282Z,96956.87
2018-02-11T04:28:10.816Z,96959.98
2018-02-11T04:30:38.296Z,96955.42
2018-02-11T04:33:05.741Z,96958.34
2018-02-11T04:35:33.223Z,96951.00
2018-02-11T04:38:00.683Z,96957.27
2018-02-11T04:40:28.149Z,96955.89
2018-02-11T04:42:55.639Z,96955.95
2018-02-11T04:45:23.053Z,96949.39
2018-02-11T04:47:50.510Z,96946.40
2018-02-11T04:50:17.968Z,96952.19
2018-02-11T04:52:45.429Z,96947.78
2018-02-11T04:55:12.889Z,96932.37
2018-02-11T04:57:40.361Z,96933.73
2018-02-11T05:00:07.818Z,96925.17
2018-02-11T05:02:35.281Z,96926.38
2018-02-11T05:05:02.834Z,96931.31
2018-02-11T05:07:30.340Z,96931.77
2018-02-11T05:09:57.873Z,96933.06
2018-02-11T05:12:25.383Z,96925.96
2018-02-11T05:14:52.866Z,96924.49
2018-02-11T05:17:20.348Z,96914.78
2018-02-11T05:19:47.821Z,96918.99
2018-02-11T05:22:15.278Z,96917.70
2018-02-11T05:24:42.765Z,96921.92
2018-02-11T05:27:10.251Z,96909.06
2018-02-11T05:29:37.721Z,96911.58
2018-02-11T05:32:05.169Z,96904.55
2018-02-11T05:34:32.679Z,96898.24
2018-02-11T05:37:00.208Z,96893.84
2018-02-11T05:39:27.725Z,96898.77
2018-02-11T05:41:55.187Z,96889.33
2018-02-11T05:44:22.607Z,96891.91
2018-02-11T05:46:50.085Z,96889.84
2018-02-11T05:49:17.548Z,96890.04
2018-02-11T05:51:45.002Z,96886.36
2018-02-11T05:54:12.508Z,96885.28
2018-02-11T05:56:39.929Z,96893.56
2018-02-11T05:59:07.430Z,96894.66
2018-02-11T06:01:34.915Z,96884.81
2018-02-11T06:04:02.334Z,96885.14
2018-02-11T06:06:29.793Z,96890.66
2018-02-11T06:08:57.196Z,96879.64
2018-02-11T06:11:24.628Z,96882.75
2018-02-11T06:13:52.221Z,96892.51
2018-02-11T06:16:19.869Z,96883.66
2018-02-11T06:18:47.387Z,96884.95
2018-02-11T06:21:14.904Z,96888.03
2018-02-11T06:23:42.397Z,96882.70
2018-02-11T06:28:43.703Z,96877.56
2018-02-11T06:31:11.259Z,96874.52
2018-02-11T06:33:38.704Z,96874.33
2018-02-11T06:36:06.187Z,96872.17
2018-02-11T06:38:33.694Z,96869.96
2018-02-11T06:41:01.150Z,96866.95
2018-02-11T06:43:28.651Z,96869.16
2018-02-11T06:45:56.300Z,96878.55
2018-02-11T06:48:23.851Z,96869.33
2018-02-11T06:50:51.319Z,96867.79
2018-02-11T06:53:18.774Z,96870.79
2018-02-11T06:55:46.293Z,96869.46
2018-02-11T06:58:13.800Z,96869.59
2018-02-11T07:00:41.255Z,96873.38
2018-02-11T07:03:08.803Z,96868.70
2018-02-11T07:05:36.304Z,96877.55
2018-02-11T07:08:03.770Z,96873.63
2018-02-11T07:10:31.270Z,96880.09
2018-02-11T07:12:58.762Z,96879.97
2018-02-11T07:15:26.237Z,96874.26
2018-02-11T07:17:53.724Z,96878.80
2018-02-11T07:20:21.185Z,96883.81
2018-02-11T07:22:48.684Z,96879.14
2018-02-11T07:25:16.197Z,96870.09
2018-02-11T07:27:43.623Z,96870.84
2018-02-11T07:30:11.094Z,96873.05
2018-02-11T07:32:38.538Z,96882.38
2018-02-11T07:35:05.919Z,96875.62
2018-02-11T07:37:33.479Z,96873.34
2018-02-11T07:40:00.985Z,96871.91
2018-02-11T07:42:28.469Z,96880.02
2018-02-11T07:44:55.986Z,96889.52
2018-02-11T07:47:23.495Z,96885.72
2018-02-11T07:49:51.022Z,96881.69
2018-02-11T07:52:18.683Z,96883.53
2018-02-11T07:54:46.177Z,96880.03
2018-02-11T07:57:13.792Z,96877.91
2018-02-11T07:59:41.316Z,96880.80
2018-02-11T08:02:08.713Z,96877.05
2018-02-11T08:04:36.206Z,96881.01
2018-02-11T08:07:03.711Z,96877.33
2018-02-11T08:09:31.191Z,96878.63
2018-02-11T08:11:58.713Z,96876.69
2018-02-11T08:14:26.215Z,96869.63
2018-02-11T08:16:53.624Z,96871.52
2018-02-11T08:19:21.062Z,96873.25
2018-02-11T08:21:48.522Z,96872.79
2018-02-11T08:24:16.012Z,96874.42
2018-02-11T08:26:43.504Z,96868.69
2018-02-11T08:29:10.897Z,96866.06
2018-02-11T08:31:38.383Z,96862.91
2018-02-11T08:34:05.894Z,96864.39
2018-02-11T08:36:33.457Z,96865.27
2018-02-11T08:39:00.947Z,96856.52
2018-02-11T08:41:28.367Z,96855.91
2018-02-11T08:43:55.783Z,96850.98
2018-02-11T08:46:23.282Z,96850.29
2018-02-11T08:48:50.718Z,96849.50
2018-02-11T08:51:18.282Z,96846.53
2018-02-11T08:53:45.780Z,96844.36
2018-02-11T08:56:13.380Z,96844.24
2018-02-11T08:58:40.882Z,96839.84
2018-02-11T09:01:08.379Z,96835.49
2018-02-11T09:03:35.903Z,96828.43
2018-02-11T09:06:03.407Z,96827.34
2018-02-11T09:08:30.818Z,96832.27
2018-02-11T09:10:58.276Z,96835.27
2018-02-11T09:13:25.813Z,96839.45
2018-02-11T09:15:53.272Z,96834.66
2018-02-11T09:18:20.775Z,96835.95
2018-02-11T09:20:48.237Z,96837.79
2018-02-11T09:23:15.740Z,96835.83
2018-02-11T09:25:43.217Z,96833.44
2018-02-11T09:28:10.707Z,96825.25
2018-02-11T09:30:38.440Z,96824.60
2018-02-11T09:33:05.886Z,96819.93
2018-02-11T09:35:33.402Z,96814.18
2018-02-11T09:38:00.888Z,96814.07
2018-02-11T09:40:28.385Z,96810.03
2018-02-11T09:42:55.788Z,96804.70
2018-02-11T09:45:23.267Z,96805.94
2018-02-11T09:47:50.747Z,96806.30
2018-02-11T09:50:19.062Z,96798.67
2018-02-11T09:52:46.509Z,96801.08
2018-02-11T09:55:14.016Z,96799.17
2018-02-11T09:57:41.488Z,96801.16
2018-02-11T10:00:09.017Z,96794.63
2018-02-11T10:02:36.459Z,96793.47
2018-02-11T10:05:03.848Z,96790.89
2018-02-11T10:07:31.440Z,96781.55
2018-02-11T10:09:58.897Z,96783.03
2018-02-11T10:12:26.303Z,96778.22
2018-02-11T10:14:53.754Z,96772.25
2018-02-11T10:17:21.197Z,96768.11
2018-02-11T10:19:49.516Z,96768.54
2018-02-11T10:22:17.072Z,96764.81
2018-02-11T10:24:44.528Z,96759.16
2018-02-11T10:27:11.986Z,96756.87
2018-02-11T10:29:39.552Z,96751.70
2018-02-11T10:32:07.416Z,96749.72
2018-02-11T10:34:34.921Z,96743.80
2018-02-11T10:37:02.426Z,96738.91
2018-02-11T10:39:29.937Z,96738.23
2018-02-11T10:41:57.457Z,96723.14
2018-02-11T10:44:24.974Z,96723.87
2018-02-11T10:46:52.464Z,96721.79
2018-02-11T10:49:19.912Z,96718.89
2018-02-11T10:51:47.370Z,96719.70
2018-02-11T10:54:14.964Z,96707.14
2018-02-11T10:56:42.469Z,96709.46
2018-02-11T10:59:09.951Z,96702.77
2018-02-11T11:01:37.471Z,96702.64
2018-02-11T11:04:04.978Z,96698.63
2018-02-11T11:06:32.445Z,96697.61
2018-02-11T11:09:00.871Z,96702.69
2018-02-11T11:11:28.377Z,96712.63
2018-02-11T11:13:55.849Z,96703.68
2018-02-11T11:16:23.344Z,96702.34
2018-02-11T11:18:50.891Z,96695.80
2018-02-11T11:21:18.382Z,96683.90
2018-02-11T11:23:45.838Z,96675.60
2018-02-11T11:26:13.341Z,96672.19
2018-02-11T11:28:40.790Z,96664.55
2018-02-11T11:31:08.352Z,96665.39
2018-02-11T11:33:35.829Z,96659.20
2018-02-11T11:36:03.319Z,96665.39
2018-02-11T11:38:30.827Z,96659.28
2018-02-11T11:40:58.360Z,96656.89
2018-02-11T11:43:25.844Z,96668.42
2018-02-11T11:45:53.309Z,96658.80
2018-02-11T11:48:20.775Z,96646.25
2018-02-11T11:50:48.275Z,96643.04
2018-02-11T11:53:15.782Z,96638.33
2018-02-11T11:55:43.187Z,96639.03
2018-02-11T11:58:10.631Z,96637.69
2018-02-11T12:00:38.033Z,96636.99
2018-02-11T12:03:05.534Z,96631.82
2018-02-11T12:05:32.951Z,96631.45
2018-02-11T12:08:00.355Z,96627.88
2018-02-11T12:10:27.981Z,96622.29
2018-02-11T12:12:55.441Z,96625.70
2018-02-11T12:15:22.901Z,96612.88
2018-02-11T12:17:50.426Z,96605.17
2018-02-11T12:20:17.825Z,96606.04
2018-02-11T12:22:45.323Z,96604.73
2018-02-11T12:25:12.785Z,96597.59
2018-02-11T12:27:40.277Z,96594.34
2018-02-11T12:30:07.738Z,96583.31
2018-02-11T12:32:35.251Z,96583.81
2018-02-11T12:35:02.757Z,96586.00
2018-02-11T12:37:30.315Z,96585.94
2018-02-11T12:39:57.751Z,96590.59
2018-02-11T12:42:25.282Z,96578.27
2018-02-11T12:44:52.737Z,96581.32
2018-02-11T12:47:20.239Z,96577.91
2018-02-11T12:49:47.718Z,96570.28
2018-02-11T12:52:15.207Z,96562.49
2018-02-11T12:54:42.744Z,96554.81
2018-02-11T12:57:10.211Z,96547.75
2018-02-11T12:59:37.619Z,96549.92
2018-02-11T13:02:05.103Z,96553.25
2018-02-11T13:04:32.581Z,96549.35
2018-02-11T13:07:00.062Z,96548.75
2018-02-11T13:09:27.572Z,96536.00
2018-02-11T13:11:55.058Z,96542.30
2018-02-11T13:14:22.524Z,96541.88
2018-02-11T13:16:49.942Z,96531.33
2018-02-11T13:19:17.461Z,96539.25
2018-02-11T13:21:44.961Z,96539.95
2018-02-11T13:24:12.506Z,96529.39
2018-02-11T13:26:39.952Z,96519.32
2018-02-11T13:29:07.459Z,96526.94
2018-02-11T13:31:34.951Z,96526.77
2018-02-11T13:34:02.479Z,96525.61
2018-02-11T13:36:29.990Z,96526.55
2018-02-11T13:38:57.479Z,96526.91
2018-02-11T13:41:24.884Z,96522.76
2018-02-11T13:43:52.441Z,96526.17
2018-02-11T13:46:19.915Z,96508.73
2018-02-11T13:48:47.389Z,96509.84
2018-02-11T13:51:14.965Z,96506.28
2018-02-11T13:53:42.490Z,96499.48
2018-02-11T13:56:11.127Z,96495.51
2018-02-11T13:58:38.523Z,96493.50
2018-02-11T14:01:05.919Z,96496.11
2018-02-11T14:03:33.381Z,96493.96
2018-02-11T14:06:01.042Z,96484.65
2018-02-11T14:08:28.506Z,96492.39
2018-02-11T14:10:56.035Z,96496.83
2018-02-11T14:13:23.561Z,96485.48
2018-02-11T14:15:51.038Z,96480.56
2018-02-11T14:18:18.572Z,96474.94
2018-02-11T14:20:46.033Z,96478.69
2018-02-11T14:23:13.526Z,96478.53
2018-02-11T14:25:41.010Z,96476.53
2018-02-11T14:28:08.565Z,96464.42
2018-02-11T14:30:36.058Z,96469.93
2018-02-11T14:33:03.587Z,96467.62
2018-02-11T14:35:31.106Z,96468.44
2018-02-11T14:37:58.612Z,96466.83
2018-02-11T14:40:26.136Z,96461.72
2018-02-11T14:42:53.704Z,96452.47
2018-02-11T14:45:21.227Z,96449.66
2018-02-11T14:47:48.679Z,96445.52
2018-02-11T14:50:16.166Z,96442.04
2018-02-11T14:52:43.740Z,96450.00
2018-02-11T14:55:11.217Z,96449.00
2018-02-11T14:57:38.622Z,96443.66
2018-02-11T15:00:06.050Z,96439.03
2018-02-11T15:02:33.553Z,96455.25
2018-02-11T15:05:01.025Z,96458.52
2018-02-11T15:07:28.533Z,96464.89
2018-02-11T15:09:56.055Z,96453.39
2018-02-11T15:12:23.562Z,96463.14
2018-02-11T15:14:51.971Z,96469.03
2018-02-11T15:17:19.466Z,96457.00
2018-02-11T15:19:46.920Z,96467.44
2018-02-11T15:22:14.389Z,96464.33
2018-02-11T15:24:42.070Z,96465.45
2018-02-11T15:27:09.581Z,96462.91
2018-02-11T15:29:37.053Z,96459.77
2018-02-11T15:32:04.563Z,96461.62
2018-02-11T15:34:32.026Z,96478.34
2018-02-11T15:36:59.560Z,96471.22
2018-02-11T15:39:27.078Z,96472.89
2018-02-11T15:41:54.554Z,96469.28
2018-02-11T15:44:22.079Z,96464.45
2018-02-11T15:46:49.514Z,96469.16
2018-02-11T15:49:17.046Z,96471.95
2018-02-11T15:51:44.526Z,96471.18
2018-02-11T15:54:11.998Z,96468.77
2018-02-11T15:56:39.475Z,96474.91
2018-02-11T15:59:07.002Z,96486.36
2018-02-11T16:01:34.482Z,96484.92
2018-02-11T16:04:02.571Z,96482.10
2018-02-11T16:06:29.987Z,96493.73
2018-02-11T16:08:57.567Z,96500.06
2018-02-11T16:11:25.198Z,96505.36
2018-02-11T16:13:52.699Z,96502.87
2018-02-11T16:16:20.161Z,96507.77
2018-02-11T16:18:47.640Z,96504.41
2018-02-11T16:21:15.184Z,96504.89
2018-02-11T16:23:42.674Z,96506.12
2018-02-11T16:26:10.180Z,96506.95
2018-02-11T16:28:37.722Z,96502.83
2018-02-11T16:31:05.322Z,96505.36
2018-02-11T16:33:32.798Z,96505.94
2018-02-11T16:36:00.438Z,96507.08
2018-02-11T16:38:27.996Z,96503.83
2018-02-11T16:40:55.464Z,96503.95
2018-02-11T16:43:22.974Z,96508.30
2018-02-11T16:45:50.487Z,96512.95
2018-02-11T16:48:17.982Z,96515.06
2018-02-11T16:50:45.446Z,96521.33
2018-02-11T16:53:12.955Z,96524.47
2018-02-11T16:55:40.660Z,96518.68
2018-02-11T16:58:08.128Z,96512.55
2018-02-11T17:00:35.633Z,96512.55
2018-02-11T17:03:03.160Z,96510.30
2018-02-11T17:05:30.673Z,96516.55
2018-02-11T17:07:58.118Z,96523.41
2018-02-11T17:10:25.615Z,96530.55
2018-02-11T17:12:53.107Z,96531.43
2018-02-11T17:15:20.602Z,96537.88
2018-02-11T17:17:48.139Z,96536.92
2018-02-11T17:20:15.679Z,96544.12
2018-02-11T17:22:43.229Z,96542.45
2018-02-11T17:25:10.744Z,96537.62
2018-02-11T17:27:38.207Z,96549.55
2018-02-11T17:30:05.748Z,96556.23
2018-02-11T17:32:33.243Z,96553.47
2018-02-11T17:35:00.765Z,96548.39
2018-02-11T17:37:28.271Z,96556.89
2018-02-11T17:39:55.738Z,96556.82
2018-02-11T17:42:23.232Z,96554.52
2018-02-11T17:44:50.738Z,96560.08
2018-02-11T17:47:18.274Z,96559.95
2018-02-11T17:49:45.803Z,96560.83
2018-02-11T17:52:13.315Z,96559.23
2018-02-11T17:54:40.811Z,96568.63
2018-02-11T17:57:08.305Z,96570.22
2018-02-11T17:59:35.793Z,96570.64
2018-02-11T18:02:03.235Z,96579.76
2018-02-11T18:04:30.728Z,96583.66
2018-02-11T18:06:58.234Z,96582.70
2018-02-11T18:09:25.761Z,96575.38
2018-02-11T18:11:53.225Z,96587.14
2018-02-11T18:14:20.756Z,96592.39
2018-02-11T18:16:48.214Z,96600.14
2018-02-11T18:19:15.705Z,96610.05
2018-02-11T18:21:43.209Z,96614.00
2018-02-11T18:24:10.626Z,96608.92
2018-02-11T18:26:38.128Z,96617.92
2018-02-11T18:29:05.680Z,96621.64
2018-02-11T18:31:33.168Z,96622.80
2018-02-11T18:34:01.680Z,96627.31
2018-02-11T18:36:29.165Z,96636.05
2018-02-11T18:38:56.637Z,96637.47
2018-02-11T18:41:24.118Z,96638.25
2018-02-11T18:43:51.602Z,96637.83
2018-02-11T18:46:19.167Z,96639.59
2018-02-11T18:48:46.649Z,96649.58
2018-02-11T18:51:14.192Z,96650.09
2018-02-11T18:53:41.677Z,96646.50
2018-02-11T18:56:09.207Z,96650.86
2018-02-11T18:58:36.757Z,96663.77
2018-02-11T19:01:04.255Z,96661.46
2018-02-11T19:03:31.746Z,96669.31
2018-02-11T19:05:59.828Z,96673.98
2018-02-11T19:08:27.355Z,96672.68
2018-02-11T19:10:54.832Z,96671.86
2018-02-11T19:13:22.343Z,96673.52
2018-02-11T19:15:50.638Z,96677.06
2018-02-11T19:18:18.143Z,96676.18
2018-02-11T19:20:45.608Z,96679.50
2018-02-11T19:23:13.104Z,96679.48
2018-02-11T19:25:40.611Z,96680.42
2018-02-11T19:28:08.155Z,96679.06
2018-02-11T19:30:35.642Z,96681.08
2018-02-11T19:33:03.109Z,96676.16
2018-02-11T19:35:30.655Z,96678.13
2018-02-11T19:37:58.087Z,96680.20
2018-02-11T19:40:25.591Z,96673.93
2018-02-11T19:42:53.100Z,96676.64
2018-02-11T19:45:20.583Z,96678.20
2018-02-11T19:47:48.022Z,96682.97
2018-02-11T19:50:15.666Z,96695.43
2018-02-11T19:52:43.145Z,96691.24
2018-02-11T19:55:10.661Z,96702.00
2018-02-11T19:57:38.184Z,96699.75
2018-02-11T20:00:05.686Z,96701.53
2018-02-11T20:02:33.199Z,96703.41
2018-02-11T20:05:00.714Z,96708.21
2018-02-11T20:07:28.330Z,96720.49
2018-02-11T20:09:55.876Z,96725.93
2018-02-11T20:12:23.384Z,96725.70
2018-02-11T20:14:50.855Z,96726.46
2018-02-11T20:17:18.344Z,96736.02
2018-02-11T20:19:45.846Z,96738.48
2018-02-11T20:22:13.315Z,96744.53
2018-02-11T20:24:40.831Z,96745.30
2018-02-11T20:27:08.347Z,96738.32
2018-02-11T20:29:36.052Z,96732.41
2018-02-11T20:32:03.528Z,96729.74
2018-02-11T20:34:31.023Z,96735.30
2018-02-11T20:36:58.569Z,96734.46
2018-02-11T20:39:26.087Z,96735.25
2018-02-11T20:41:53.621Z,96744.53
2018-02-11T20:44:21.187Z,96738.61
2018-02-11T20:46:48.742Z,96743.97
2018-02-11T20:49:16.238Z,96743.62
2018-02-11T20:51:43.712Z,96746.75
2018-02-11T20:54:11.236Z,96747.39
2018-02-11T20:56:38.713Z,96742.42
2018-02-11T20:59:06.258Z,96751.72
2018-02-11T21:01:33.721Z,96742.93
2018-02-11T21:04:01.311Z,96745.13
2018-02-11T21:06:28.944Z,96743.38
2018-02-11T21:08:56.345Z,96738.25
2018-02-11T21:11:23.894Z,96737.41
2018-02-11T21:13:51.359Z,96741.91
2018-02-11T21:16:18.830Z,96736.77
2018-02-11T21:18:46.416Z,96735.05
2018-02-11T21:21:13.905Z,96735.35
2018-02-11T21:23:41.442Z,96732.91
2018-02-11T21:26:08.905Z,96738.42
2018-02-11T21:28:36.725Z,96728.04
2018-02-11T21:31:04.210Z,96737.49
2018-02-11T21:33:31.698Z,96740.16
2018-02-11T21:35:59.128Z,96733.20
2018-02-11T21:38:26.663Z,96736.73
2018-02-11T21:40:54.195Z,96734.62
2018-02-11T21:43:21.735Z,96730.47
2018-02-11T21:45:49.201Z,96735.59
2018-02-11T21:48:16.801Z,96730.29
2018-02-11T21:50:44.300Z,96732.23
2018-02-11T21:53:11.821Z,96738.06
2018-02-11T21:55:39.342Z,96737.06
2018-02-11T21:58:06.822Z,96731.42
2018-02-11T22:00:34.295Z,96735.95
2018-02-11T22:03:01.692Z,96734.41
2018-02-11T22:05:29.214Z,96737.68
2018-02-11T22:07:56.670Z,96740.03
2018-02-11T22:10:24.133Z,96743.77
2018-02-11T22:12:51.607Z,96741.34
2018-02-11T22:15:19.146Z,96735.12
2018-02-11T22:17:46.629Z,96731.73
2018-02-11T22:20:14.092Z,96734.61
2018-02-11T22:22:41.599Z,96730.87
2018-02-11T22:25:09.024Z,96723.97
2018-02-11T22:27:36.555Z,96731.91
2018-02-11T22:30:04.043Z,96732.32
2018-02-11T22:32:31.576Z,96732.90
2018-02-11T22:34:59.089Z,96732.84
2018-02-11T22:37:26.558Z,96743.48
2018-02-11T22:39:54.042Z,96742.69
2018-02-11T22:42:21.532Z,96743.02
2018-02-11T22:44:49.014Z,96741.03
2018-02-11T22:47:16.557Z,96734.66
2018-02-11T22:49:44.071Z,96724.89
2018-02-11T22:52:11.571Z,96723.44
2018-02-11T22:54:39.068Z,96717.61
2018-02-11T22:57:06.570Z,96719.16
2018-02-11T22:59:34.099Z,96725.38
2018-02-11T23:02:01.608Z,96729.88
2018-02-11T23:04:29.141Z,96734.65
2018-02-11T23:06:56.619Z,96725.47
2018-02-11T23:09:24.030Z,96735.43
2018-02-11T23:11:51.714Z,96735.98
2018-02-11T23:14:19.228Z,96739.46
2018-02-11T23:16:46.701Z,96746.79
2018-02-11T23:19:14.216Z,96745.86
2018-02-11T23:21:41.745Z,96747.94
2018-02-11T23:24:09.332Z,96749.95
2018-02-11T23:26:37.076Z,96749.09
2018-02-11T23:29:04.553Z,96754.31
2018-02-11T23:31:33.016Z,96760.34
2018-02-11T23:34:00.535Z,96755.69
2018-02-11T23:36:28.006Z,96755.63
2018-02-11T23:38:55.429Z,96754.34
2018-02-11T23:41:22.882Z,96752.58
2018-02-11T23:43:50.382Z,96753.82
2018-02-11T23:46:17.876Z,96757.78
2018-02-11T23:48:45.288Z,96766.81
2018-02-11T23:51:12.764Z,96759.66
2018-02-11T23:53:40.213Z,96760.84
2018-02-11T23:56:07.787Z,96759.09
2018-02-11T23:58:35.294Z,96758.66
